createdAt,value
2023-01-21T00:03:59.251Z,1021.7
2023-01-21T00:08:55.661Z,1021.8
2023-01-21T00:14:12.060Z,1021.8
2023-01-21T00:19:20.075Z,1022.0
2023-01-21T00:24:50.567Z,1022.1
2023-01-21T00:29:32.834Z,1022.1
2023-01-21T00:34:29.402Z,1022.2
2023-01-21T00:41:01.512Z,1022.2
2023-01-21T00:44:55.771Z,1022.3
2023-01-21T00:50:02.173Z,1022.3
2023-01-21T00:55:08.546Z,1022.4
2023-01-21T01:00:15.341Z,1022.4
2023-01-21T01:05:20.457Z,1022.5
2023-01-21T01:10:27.821Z,1022.6
2023-01-21T01:15:34.332Z,1022.7
2023-01-21T01:20:40.662Z,1022.9
2023-01-21T01:26:07.161Z,1022.9
2023-01-21T01:30:53.630Z,1023.0
2023-01-21T01:35:59.922Z,1023.1
2023-01-21T01:41:06.321Z,1023.1
2023-01-21T01:46:12.752Z,1023.2
2023-01-21T01:51:19.215Z,1023.3
2023-01-21T01:56:25.497Z,1023.5
2023-01-21T02:01:31.904Z,1023.4
2023-01-21T02:06:28.222Z,1023.5
2023-01-21T02:12:18.748Z,1023.6
2023-01-21T02:17:26.213Z,1023.6
2023-01-21T02:22:22.535Z,1023.7
2023-01-21T02:27:38.920Z,1023.7
2023-01-21T02:32:45.324Z,1023.6
2023-01-21T02:37:51.682Z,1023.7
2023-01-21T02:42:58.085Z,1023.7
2023-01-21T02:48:04.567Z,1023.7
2023-01-21T02:53:01.101Z,1023.7
2023-01-21T02:59:29.841Z,1023.9
2023-01-21T03:03:24.115Z,1023.9
2023-01-21T03:08:30.472Z,1024.0
2023-01-21T03:13:26.840Z,1024.0
2023-01-21T03:18:33.341Z,1024.0
2023-01-21T03:23:49.871Z,1024.1
2023-01-21T03:28:56.218Z,1024.0
2023-01-21T03:34:02.618Z,1024.1
2023-01-21T03:39:09.406Z,1024.1
2023-01-21T03:44:15.806Z,1024.3
2023-01-21T03:49:22.701Z,1024.3
2023-01-21T03:54:29.181Z,1024.3
2023-01-21T03:59:25.533Z,1024.4
2023-01-21T04:04:31.939Z,1024.4
2023-01-21T04:09:48.316Z,1024.5
2023-01-21T04:14:54.696Z,1024.5
2023-01-21T04:20:01.385Z,1024.5
2023-01-21T04:25:07.467Z,1024.5
2023-01-21T04:30:13.956Z,1024.6
2023-01-21T04:35:20.378Z,1024.6
2023-01-21T04:40:26.727Z,1024.7
2023-01-21T04:45:23.089Z,1024.6
2023-01-21T04:50:39.531Z,1024.7
2023-01-21T04:55:49.668Z,1024.7
2023-01-21T05:00:53.225Z,1024.8
2023-01-21T05:05:59.689Z,1024.9
2023-01-21T05:11:06.062Z,1024.9
2023-01-21T05:16:12.444Z,1024.9
2023-01-21T05:21:20.437Z,1024.8
2023-01-21T05:26:26.769Z,1024.9
2023-01-21T05:31:23.383Z,1025.1
2023-01-21T05:36:29.745Z,1025.1
2023-01-21T05:41:46.150Z,1025.1
2023-01-21T05:46:42.507Z,1025.2
2023-01-21T05:51:58.926Z,1025.3
2023-01-21T05:57:05.288Z,1025.4
2023-01-21T06:02:11.703Z,1025.5
2023-01-21T06:07:18.064Z,1025.6
2023-01-21T06:12:14.396Z,1025.8
2023-01-21T06:17:29.810Z,1025.8
2023-01-21T06:22:40.779Z,1025.9
2023-01-21T06:32:53.563Z,1025.9
2023-01-21T06:37:59.928Z,1025.9
2023-01-21T06:43:07.462Z,1025.9
2023-01-21T06:48:13.840Z,1026.0
2023-01-21T06:53:20.283Z,1026.1
2023-01-21T06:58:26.624Z,1026.1
2023-01-21T07:03:33.031Z,1026.3
2023-01-21T07:08:39.394Z,1026.3
2023-01-21T07:13:45.750Z,1026.3
2023-01-21T07:19:16.192Z,1026.4
2023-01-21T07:23:58.668Z,1026.4
2023-01-21T07:29:05.116Z,1026.3
2023-01-21T07:34:01.543Z,1026.4
2023-01-21T07:39:17.938Z,1026.3
2023-01-21T07:44:24.284Z,1026.4
2023-01-21T07:49:30.662Z,1026.4
2023-01-21T07:54:37.062Z,1026.5
2023-01-21T07:59:43.413Z,1026.6
2023-01-21T08:04:49.792Z,1026.7
2023-01-21T08:10:16.248Z,1026.8
2023-01-21T08:15:02.551Z,1026.8
2023-01-21T08:20:32.968Z,1026.8
2023-01-21T08:25:15.657Z,1027.0
2023-01-21T08:30:21.753Z,1027.0
2023-01-21T08:35:28.237Z,1027.1
2023-01-21T08:40:34.722Z,1027.1
2023-01-21T08:45:41.157Z,1027.2
2023-01-21T08:50:47.540Z,1027.2
2023-01-21T08:55:53.879Z,1027.2
2023-01-21T09:01:00.867Z,1027.4
2023-01-21T09:06:07.210Z,1027.4
2023-01-21T09:11:13.568Z,1027.6
2023-01-21T09:16:20.029Z,1027.6
2023-01-21T09:21:46.373Z,1027.6
2023-01-21T09:26:32.748Z,1027.6
2023-01-21T09:31:39.190Z,1027.7
2023-01-21T09:36:45.486Z,1027.7
2023-01-21T09:41:41.979Z,1027.7
2023-01-21T09:46:58.462Z,1027.7
2023-01-21T09:52:04.814Z,1027.8
2023-01-21T09:57:11.187Z,1027.8
2023-01-21T10:02:17.585Z,1027.9
2023-01-21T10:07:13.914Z,1027.8
2023-01-21T10:12:30.530Z,1027.8
2023-01-21T10:17:26.914Z,1027.9
2023-01-21T10:22:42.296Z,1027.8
2023-01-21T10:27:49.689Z,1027.9
2023-01-21T10:32:56.080Z,1028.1
2023-01-21T10:38:02.446Z,1028.0
2023-01-21T10:43:08.816Z,1028.0
2023-01-21T10:48:39.276Z,1028.0
2023-01-21T10:53:21.600Z,1028.0
2023-01-21T10:58:27.987Z,1028.0
2023-01-21T11:03:34.443Z,1028.0
2023-01-21T11:08:44.468Z,1028.0
2023-01-21T11:13:40.757Z,1028.0
2023-01-21T11:18:57.155Z,1028.0
2023-01-21T11:24:03.588Z,1027.9
2023-01-21T11:29:09.907Z,1028.0
2023-01-21T11:34:16.447Z,1027.9
2023-01-21T11:39:22.848Z,1027.9
2023-01-21T11:44:29.205Z,1027.9
2023-01-21T11:49:35.588Z,1027.8
2023-01-21T11:54:41.999Z,1027.9
2023-01-21T12:00:08.382Z,1027.8
2023-01-21T12:05:14.800Z,1027.8
2023-01-21T12:10:01.670Z,1027.7
2023-01-21T12:15:08.010Z,1027.7
2023-01-21T12:20:38.615Z,1027.6
2023-01-21T12:25:24.985Z,1027.6
2023-01-21T12:30:27.421Z,1027.7
2023-01-21T12:35:33.709Z,1027.7
2023-01-21T12:40:40.146Z,1027.7
2023-01-21T12:45:36.640Z,1027.6
2023-01-21T12:50:53.161Z,1027.6
2023-01-21T12:55:59.844Z,1027.7
2023-01-21T13:01:06.360Z,1027.7
2023-01-21T13:06:12.578Z,1027.7
2023-01-21T13:11:19.014Z,1027.8
2023-01-21T13:16:25.447Z,1027.8
2023-01-21T13:21:31.824Z,1027.8
2023-01-21T13:26:28.343Z,1027.9
2023-01-21T13:31:44.750Z,1028.0
2023-01-21T13:36:51.126Z,1028.0
2023-01-21T13:41:57.525Z,1028.1
2023-01-21T13:47:04.025Z,1028.1
2023-01-21T13:52:00.449Z,1028.2
2023-01-21T13:57:16.875Z,1028.2
2023-01-21T14:02:23.315Z,1028.3
2023-01-21T14:07:29.645Z,1028.2
2023-01-21T14:12:36.038Z,1028.3
2023-01-21T14:23:59.918Z,1028.3
2023-01-21T14:27:55.220Z,1028.3
2023-01-21T14:33:01.651Z,1028.3
2023-01-21T14:38:32.063Z,1028.4
2023-01-21T14:43:14.429Z,1028.4
2023-01-21T14:48:55.276Z,1028.4
2023-01-21T14:54:02.670Z,1028.3
2023-01-21T14:58:59.056Z,1028.4
2023-01-21T15:04:15.475Z,1028.3
2023-01-21T15:09:21.965Z,1028.4
2023-01-21T15:14:18.371Z,1028.5
2023-01-21T15:20:34.956Z,1028.4
2023-01-21T15:24:41.206Z,1028.4
2023-01-21T15:29:47.636Z,1028.4
2023-01-21T15:34:53.984Z,1028.2
2023-01-21T15:40:03.913Z,1028.3
2023-01-21T15:45:10.368Z,1028.4
2023-01-21T15:50:40.742Z,1028.5
2023-01-21T15:55:23.093Z,1028.5
2023-01-21T16:00:33.067Z,1028.5
2023-01-21T16:05:39.406Z,1028.6
2023-01-21T16:10:45.777Z,1028.7
2023-01-21T16:15:52.364Z,1028.7
2023-01-21T16:21:02.120Z,1028.7
2023-01-21T16:26:08.457Z,1028.8
2023-01-21T16:31:49.020Z,1028.6
2023-01-21T16:36:56.339Z,1028.6
2023-01-21T16:42:02.751Z,1028.6
2023-01-21T16:47:08.215Z,1028.6
2023-01-21T16:52:15.632Z,1028.7
2023-01-21T16:57:22.115Z,1028.7
2023-01-21T17:02:18.582Z,1028.7
2023-01-21T17:07:34.897Z,1028.7
2023-01-21T17:12:41.261Z,1028.8
2023-01-21T17:18:08.254Z,1028.9
2023-01-21T17:22:54.590Z,1028.8
2023-01-21T17:29:13.164Z,1028.9
2023-01-21T17:34:20.569Z,1029.0
2023-01-21T17:40:30.788Z,1028.9
2023-01-21T17:44:36.995Z,1029.0
2023-01-21T17:50:43.692Z,1028.9
2023-01-21T17:54:50.061Z,1029.1
2023-01-21T18:02:16.829Z,1029.0
2023-01-21T18:05:22.946Z,1029.1
2023-01-21T18:10:09.852Z,1029.0
2023-01-21T18:15:16.689Z,1029.0
2023-01-21T18:20:22.786Z,1029.1
2023-01-21T18:25:19.557Z,1029.0
2023-01-21T18:30:35.552Z,1029.0
2023-01-21T18:35:41.947Z,1029.0
2023-01-21T18:40:48.409Z,1028.9
2023-01-21T18:46:14.825Z,1029.0
2023-01-21T18:51:01.174Z,1028.9
2023-01-21T18:56:07.551Z,1029.0
2023-01-21T19:01:58.587Z,1028.9
2023-01-21T19:06:10.869Z,1028.9
2023-01-21T19:11:17.452Z,1028.8
2023-01-21T19:16:34.167Z,1028.9
2023-01-21T19:22:40.524Z,1028.9
2023-01-21T19:26:47.386Z,1028.8
2023-01-21T19:32:14.760Z,1028.9
2023-01-21T19:37:00.121Z,1028.9
2023-01-21T19:42:08.614Z,1028.9
2023-01-21T19:47:12.968Z,1028.8
2023-01-21T19:52:19.337Z,1028.8
2023-01-21T19:57:25.801Z,1028.9
2023-01-21T20:02:32.148Z,1028.9
2023-01-21T20:09:58.798Z,1028.9
2023-01-21T20:12:44.960Z,1028.9
2023-01-21T20:17:51.301Z,1028.8
2023-01-21T20:23:01.686Z,1028.8
2023-01-21T20:28:04.071Z,1028.9
2023-01-21T20:33:10.425Z,1028.8
2023-01-21T20:38:16.820Z,1028.8
2023-01-21T20:43:13.213Z,1028.9
2023-01-21T20:48:49.725Z,1028.9
2023-01-21T20:53:36.117Z,1028.9
2023-01-21T20:58:42.475Z,1028.9
2023-01-21T21:03:48.833Z,1028.9
2023-01-21T21:08:55.273Z,1028.8
2023-01-21T21:14:01.673Z,1028.8
2023-01-21T21:19:08.037Z,1028.9
2023-01-21T21:24:14.585Z,1028.8
2023-01-21T21:29:21.029Z,1028.8
2023-01-21T21:34:26.360Z,1028.8
2023-01-21T21:39:33.740Z,1028.8
2023-01-21T21:44:40.148Z,1028.8
2023-01-21T21:49:46.500Z,1028.8
2023-01-21T21:54:53.006Z,1028.8
2023-01-21T22:00:20.029Z,1028.8
2023-01-21T22:05:06.396Z,1028.7
2023-01-21T22:10:32.747Z,1028.7
2023-01-21T22:15:19.420Z,1028.7
2023-01-21T22:20:25.566Z,1028.8
2023-01-21T22:25:22.078Z,1028.7
2023-01-21T22:30:38.618Z,1028.8
2023-01-21T22:35:44.904Z,1028.9
2023-01-21T22:40:51.267Z,1028.9
2023-01-21T22:45:57.696Z,1028.9
2023-01-21T22:51:04.115Z,1028.8
2023-01-21T22:56:51.213Z,1028.8
2023-01-21T23:01:15.867Z,1028.8
2023-01-21T23:06:43.234Z,1028.8
2023-01-21T23:11:29.550Z,1028.7
2023-01-21T23:16:59.971Z,1028.7
2023-01-21T23:21:42.305Z,1028.6
2023-01-21T23:27:32.857Z,1028.5
2023-01-21T23:31:55.385Z,1028.5
2023-01-21T23:37:01.625Z,1028.5
2023-01-21T23:42:08.006Z,1028.6
2023-01-21T23:47:14.508Z,1028.6
2023-01-21T23:52:20.848Z,1028.6
2023-01-21T23:57:47.277Z,1028.6
